Latest Weather Observations for Ngukurr AWS

IDD60801

Issued at 6:35 pm CST Friday 31 October 2014 (issued every 30 minutes, with the page automatically refreshed every 10 minutes)

About weather observations | Map of weather stations | Latest weather observations for NT | Other Formats
Station Details ID: 014299 Name: NGUKURR AIRPORT Lat: -14.72 Lon: 134.75 Height: 14.46 m
Data from the previous 72 hours. | See also: Recent months at Ngukurr AWS
Date/Time
CST
Temp
°C
App
Temp
°C
Dew
Point
Rel
Hum
%
Delta-T
°C
Wind Press
QNH
hPa
Press
MSL
hPa
Rain
since 9 am
mm
Dir
 
Spd
km/h
Gust
km/h
Spd
kts
Gust
kts
31/06:30pm 33.1 33.8 19.6 45 8.9 E 15 26 8 14 1007.2 1007.1 0.0
31/06:00pm 34.1 34.1 19.7 42 9.6 ESE 19 28 10 15 1006.9 1006.8 0.0
31/05:30pm 35.6 34.5 18.7 37 11.1 ESE 22 32 12 17 1006.5 1006.4 0.0
31/05:00pm 37.6 36.7 18.1 32 12.8 E 20 26 11 14 1006.2 1006.1 0.0
31/04:30pm 39.3 37.4 14.3 22 15.7 NE 17 24 9 13 1006.0 1005.9 0.0
31/04:00pm 39.6 36.7 12.4 20 16.6 NE 19 24 10 13 1005.9 1005.8 0.0
31/03:30pm 39.9 37.5 10.2 17 17.6 NNE 13 24 7 13 1006.1 1006.0 0.0
31/03:00pm 39.7 36.0 10.1 17 17.5 ENE 20 28 11 15 1006.5 1006.4 0.0
31/02:30pm 39.5 35.9 9.9 17 17.5 NE 19 28 10 15 1006.8 1006.7 0.0
31/02:00pm 39.1 36.0 10.4 18 17.0 NNE 17 28 9 15 1007.2 1007.1 0.0
31/01:30pm 38.4 35.4 10.7 19 16.5 NNE 17 24 9 13 1007.7 1007.6 0.0
31/01:00pm 39.0 37.9 12.0 20 16.3 NNE 9 20 5 11 1008.3 1008.2 0.0
31/12:30pm 37.3 35.2 11.3 21 15.5 ENE 13 22 7 12 1009.0 1008.9 0.0
31/12:00pm 36.8 36.0 14.1 25 14.1 NNE 11 24 6 13 1009.8 1009.7 0.0
31/11:30am 35.5 36.3 14.7 28 12.9 SW 4 9 2 5 1010.4 1010.3 0.0
31/11:00am 34.3 33.6 14.2 29 12.3 NNE 11 19 6 10 1010.9 1010.8 0.0
31/10:30am 33.5 34.1 15.9 34 11.1 NNE 7 13 4 7 1011.3 1011.2 0.0
31/10:00am 31.9 32.5 15.8 38 10.0 NNW 7 17 4 9 1011.8 1011.7 0.0
31/09:30am 31.3 32.6 17.6 44 8.8 NNW 7 17 4 9 1011.9 1011.8 0.0
31/09:00am 30.4 31.9 18.8 50 7.5 NW 9 17 5 9 1011.9 1011.8 0.0
31/08:30am 29.2 30.8 19.2 54 6.5 NW 9 17 5 9 1011.8 1011.7 0.0
31/08:00am 28.4 29.8 19.6 59 5.7 NW 11 20 6 11 1011.4 1011.3 0.0
31/07:30am 27.2 28.6 19.5 62 5.0 NW 11 17 6 9 1011.0 1010.9 0.0
31/07:00am 26.2 29.2 20.1 69 4.0 WNW 4 7 2 4 1010.4 1010.3 0.0
31/06:30am 24.4 27.9 20.3 78 2.7 WNW 2 6 1 3 1010.0 1009.9 0.0
31/06:00am 24.1 27.1 20.0 78 2.7 WNW 4 7 2 4 1009.7 1009.6 0.0
31/05:30am 24.0 26.9 19.9 78 2.6 NW 4 6 2 3 1009.4 1009.3 0.0
31/05:00am 24.9 27.6 20.6 77 2.8 N 7 9 4 5 1009.0 1008.9 0.0
31/04:30am 25.1 28.2 21.0 78 2.7 NNE 6 7 3 4 1008.5 1008.4 0.0
31/04:00am 25.3 28.2 21.0 77 2.8 NNE 7 9 4 5 1008.2 1008.1 0.0
31/03:30am 25.5 28.4 21.0 76 3.0 NNE 7 9 4 5 1007.9 1007.8 0.0
31/03:00am 25.7 28.3 20.5 73 3.4 NNE 7 13 4 7 1007.8 1007.7 0.0
31/02:30am 25.8 28.1 19.9 70 3.8 NNE 7 13 4 7 1007.7 1007.6 0.0
31/02:00am 25.8 28.0 19.2 67 4.2 N 6 7 3 4 1008.0 1007.9 0.0
31/01:30am 26.5 28.2 19.4 65 4.6 NNE 9 13 5 7 1008.1 1008.0 0.0
31/01:00am 26.9 27.8 18.5 60 5.4 NNE 11 17 6 9 1008.2 1008.1 0.0
31/12:30am 27.3 28.9 18.3 58 5.7 NNE 7 13 4 7 1008.6 1008.5 0.0
31/12:00am 27.6 29.2 19.1 59 5.5 N 9 13 5 7 1008.8 1008.7 0.0
 
Date/Time
CST
Temp
°C
App
Temp
°C
Dew
Point
Rel
Hum
%
Delta-T
°C
Wind Press
QNH
hPa
Press
MSL
hPa
Rain
since 9 am
mm
Dir
 
Spd
km/h
Gust
km/h
Spd
kts
Gust
kts
30/11:30pm 27.7 29.9 19.5 61 5.3 NNE 7 13 4 7 1009.2 1009.1 0.0
30/11:00pm 27.9 29.8 19.7 61 5.3 NE 9 13 5 7 1009.6 1009.5 0.0
30/10:30pm 28.3 29.7 19.5 59 5.7 ENE 11 13 6 7 1009.7 1009.6 0.0
30/10:00pm 28.8 29.6 19.1 55 6.3 ENE 13 17 7 9 1009.6 1009.5 0.0
30/09:30pm 29.2 29.7 18.3 51 7.0 ENE 13 17 7 9 1009.5 1009.4 0.0
30/09:00pm 29.9 29.9 18.0 48 7.6 ENE 15 20 8 11 1009.2 1009.1 0.0
30/08:30pm 30.4 30.5 17.5 46 8.2 E 13 17 7 9 1009.0 1008.9 0.0
30/08:00pm 31.2 31.1 17.9 45 8.5 E 15 22 8 12 1008.7 1008.6 0.0
30/07:30pm 32.1 32.4 17.9 42 9.1 E 13 19 7 10 1008.3 1008.2 0.0
30/07:00pm 33.4 33.4 17.1 37 10.4 E 13 19 7 10 1007.8 1007.7 0.0
30/06:30pm 34.9 33.4 15.3 31 12.3 E 17 24 9 13 1007.3 1007.2 0.0
30/06:00pm 36.4 34.0 13.8 26 13.9 E 19 26 10 14 1006.8 1006.7 0.0
30/05:30pm 37.7 34.6 12.3 22 15.4 E 20 30 11 16 1006.5 1006.4 0.0
30/05:00pm 38.7 34.8 10.9 19 16.5 E 22 33 12 18 1006.4 1006.3 0.0
30/04:30pm 39.9 36.0 9.3 16 17.9 E 20 32 11 17 1006.1 1006.0 0.0
30/04:00pm 40.0 35.8 11.2 18 17.3 E 24 33 13 18 1005.9 1005.8 0.0
30/03:30pm 40.8 37.0 9.1 15 18.6 E 19 26 10 14 1006.1 1006.0 0.0
30/03:00pm 40.3 36.0 7.7 14 18.7 ENE 20 33 11 18 1006.4 1006.3 0.0
30/02:30pm 40.2 35.8 7.6 14 18.7 NE 20 33 11 18 1006.7 1006.6 0.0
30/02:00pm 40.9 36.2 5.9 12 19.6 ENE 20 33 11 18 1006.9 1006.8 0.0
30/01:30pm 39.8 37.5 7.3 14 18.5 E 9 20 5 11 1007.5 1007.4 0.0
30/01:00pm 39.9 36.1 7.4 14 18.5 ENE 17 30 9 16 1008.2 1008.1 0.0
30/12:30pm 38.9 36.5 8.5 16 17.5 NE 11 20 6 11 1008.9 1008.8 0.0
30/12:00pm 38.8 36.8 8.5 16 17.4 NE 9 33 5 18 1009.6 1009.5 0.0
30/11:30am 36.6 34.7 9.2 19 15.8 NNE 9 22 5 12 1010.0 1009.9 0.0
30/11:00am 35.8 34.0 9.3 20 15.2 E 9 15 5 8 1010.7 1010.6 0.0
30/10:30am 35.6 34.5 9.9 21 14.9 NNW 6 11 3 6 1011.1 1011.0 0.0
30/10:00am 33.9 33.5 11.1 25 13.3 W 4 7 2 4 1011.5 1011.4 0.0
30/09:30am 31.8 31.4 13.1 32 11.2 W 7 11 4 6 1011.8 1011.7 0.0
30/09:00am 31.1 30.8 13.4 34 10.6 WNW 7 11 4 6 1011.9 1011.8 0.0
30/08:30am 29.6 28.9 14.2 39 9.3 W 11 17 6 9 1011.8 1011.7 0.0
30/08:00am 28.3 28.4 15.6 46 7.8 NW 9 15 5 8 1011.6 1011.5 0.0
30/07:30am 26.6 27.3 15.6 50 6.7 WNW 6 9 3 5 1011.4 1011.3 0.0
30/07:00am 25.3 26.6 16.2 57 5.6 WNW 4 6 2 3 1011.2 1011.1 0.0
30/06:30am 22.6 25.1 17.3 72 3.3 CALM 0 0 0 0 1010.9 1010.8 0.0
30/06:00am 21.8 24.2 17.0 74 2.9 CALM 0 0 0 0 1010.6 1010.5 0.0
30/05:30am 22.3 24.5 17.4 74 3.0 N 2 4 1 2 1010.3 1010.2 0.0
30/05:00am 22.6 24.7 17.3 72 3.3 NE 2 4 1 2 1010.1 1010.0 0.0
30/04:30am 23.5 25.6 18.2 72 3.3 ENE 4 6 2 3 1009.8 1009.7 0.0
30/04:00am 23.0 25.1 17.2 70 3.6 ENE 2 4 1 2 1009.7 1009.6 0.0
30/03:30am 23.8 25.9 17.3 67 4.0 ENE 2 4 1 2 1009.5 1009.4 0.0
30/03:00am 24.2 25.5 16.2 61 4.9 ENE 4 4 2 2 1009.5 1009.4 0.0
30/02:30am 25.6 26.7 16.5 57 5.6 NNE 6 6 3 3 1009.5 1009.4 0.0
30/02:00am 26.3 27.7 16.5 54 6.1 NNE 4 6 2 3 1009.7 1009.6 0.0
30/01:30am 26.4 28.3 16.6 55 6.1 N 2 4 1 2 1009.7 1009.6 0.0
30/01:00am 27.1 29.1 18.7 60 5.4 N 6 9 3 5 1010.0 1009.9 0.0
30/12:30am 27.1 29.9 20.4 66 4.4 NNE 6 9 3 5 1010.3 1010.2 0.0
30/12:00am 27.4 30.7 20.7 67 4.4 NE 4 6 2 3 1010.4 1010.3 0.0
 
Date/Time
CST
Temp
°C
App
Temp
°C
Dew
Point
Rel
Hum
%
Delta-T
°C
Wind Press
QNH
hPa
Press
MSL
hPa
Rain
since 9 am
mm
Dir
 
Spd
km/h
Gust
km/h
Spd
kts
Gust
kts
29/11:30pm 27.9 30.6 20.7 65 4.8 NE 7 9 4 5 1010.7 1010.6 0.0
29/11:00pm 28.4 31.2 20.9 64 5.0 NE 7 13 4 7 1010.8 1010.7 0.0
29/10:30pm 28.9 31.0 20.9 62 5.3 NE 11 17 6 9 1010.7 1010.6 0.0
29/10:00pm 29.2 31.6 20.9 61 5.5 NE 9 13 5 7 1010.7 1010.6 0.0
29/09:30pm 29.6 31.9 20.7 58 5.9 NE 9 13 5 7 1010.5 1010.4 0.0
29/09:00pm 30.3 31.8 20.5 55 6.5 NE 13 19 7 10 1010.4 1010.3 0.0
29/08:30pm 30.9 32.5 19.9 52 7.3 NE 11 15 6 8 1010.3 1010.2 0.0
29/08:00pm 31.6 32.4 18.2 44 8.6 NE 11 17 6 9 1010.1 1010.0 0.0
29/07:30pm 32.6 32.7 15.6 36 10.6 ENE 9 17 5 9 1009.7 1009.6 0.0
29/07:00pm 33.5 32.1 13.5 29 12.1 ENE 13 22 7 12 1009.5 1009.4 0.0
29/06:30pm 34.4 32.2 12.1 26 13.3 ENE 15 26 8 14 1009.1 1009.0 0.0
29/06:00pm 35.5 32.1 10.5 22 14.6 ENE 19 28 10 15 1008.8 1008.7 0.0
29/05:30pm 37.0 33.1 8.8 18 16.2 E 19 26 10 14 1008.7 1008.6 0.0
29/05:00pm 37.5 32.9 8.3 17 16.6 E 22 32 12 17 1008.5 1008.4 0.0
29/04:30pm 38.4 34.0 7.2 15 17.6 E 20 30 11 16 1008.3 1008.2 0.0
29/04:00pm 39.2 34.0 5.7 13 18.5 E 22 32 12 17 1008.3 1008.2 0.0
29/03:30pm 39.2 33.8 4.6 12 18.8 E 22 35 12 19 1008.4 1008.3 0.0
29/03:00pm 39.5 34.2 4.8 12 19.0 E 22 44 12 24 1008.4 1008.3 0.0
29/02:30pm 39.6 35.3 7.1 14 18.4 ESE 19 30 10 16 1008.7 1008.6 0.0
29/02:00pm 39.4 35.9 8.9 16 17.7 E 17 32 9 17 1009.0 1008.9 0.0
29/01:30pm 39.1 36.2 9.6 17 17.3 ESE 15 24 8 13 1009.3 1009.2 0.0
29/01:00pm 38.5 35.7 10.0 18 16.7 E 15 28 8 15 1009.8 1009.7 0.0
29/12:30pm 37.6 37.2 12.9 23 15.1 E 7 17 4 9 1010.5 1010.4 0.0
29/12:00pm 36.7 35.5 11.5 22 15.0 NNE 9 17 5 9 1010.9 1010.8 0.0
29/11:30am 36.4 35.1 11.3 22 14.9 E 9 19 5 10 1011.3 1011.2 0.0
29/11:00am 35.0 34.3 12.0 25 13.7 NE 7 15 4 8 1011.8 1011.7 0.0
29/10:30am 33.7 33.7 13.7 30 12.2 NE 6 15 3 8 1012.3 1012.2 0.0
29/10:00am 32.5 33.0 14.1 32 11.2 ESE 4 9 2 5 1012.7 1012.6 0.0
29/09:30am 31.3 31.8 14.9 37 10.1 SSE 6 11 3 6 1013.1 1013.0 0.0
29/09:00am 29.7 30.9 16.8 45 8.1 W 6 11 3 6 1013.1 1013.0 0.0
29/08:30am 28.8 30.3 17.7 51 7.0 WSW 6 9 3 5 1013.2 1013.1 0.0
29/08:00am 27.7 28.8 18.1 56 6.1 NW 9 13 5 7 1012.8 1012.7 0.0
29/07:30am 26.6 28.5 19.0 63 4.9 NW 7 15 4 8 1012.4 1012.3 0.0
29/07:00am 24.7 27.6 19.8 74 3.2 WNW 4 6 2 3 1012.2 1012.1 0.0
29/06:30am 22.4 25.6 20.5 89 1.2 WNW 4 4 2 2 1012.0 1011.9 0.0
29/06:00am 21.5 25.0 19.6 89 1.2 CALM 0 0 0 0 1011.8 1011.7 0.0
29/05:30am 21.7 24.9 18.9 84 1.8 CALM 0 0 0 0 1011.6 1011.5 0.0
29/05:00am 22.0 25.3 19.2 84 1.8 CALM 0 0 0 0 1011.4 1011.3 0.0
29/04:30am 22.7 25.7 19.3 81 2.2 N 2 4 1 2 1011.1 1011.0 0.0
29/04:00am 23.3 27.0 19.9 81 2.2 CALM 0 9 0 5 1010.9 1010.8 0.0
29/03:30am 23.6 26.1 19.9 80 2.4 NNE 6 7 3 4 1011.0 1010.9 0.0
29/03:00am 23.9 26.8 19.8 78 2.6 NE 4 6 2 3 1011.2 1011.1 0.0
29/02:30am 24.3 27.3 20.0 77 2.8 N 4 4 2 2 1011.1 1011.0 0.0
29/02:00am 24.6 27.5 19.9 75 3.0 NE 4 6 2 3 1011.3 1011.2 0.0
29/01:30am 25.0 27.6 20.0 74 3.2 NE 6 7 3 4 1011.4 1011.3 0.0
29/01:00am 25.5 28.0 20.3 73 3.4 NE 7 9 4 5 1011.3 1011.2 0.0
29/12:30am 25.5 28.6 20.3 73 3.4 E 4 6 2 3 1011.2 1011.1 0.0
29/12:00am 26.0 28.7 20.3 71 3.7 ENE 6 7 3 4 1011.2 1011.1 0.0
 
Date/Time
CST
Temp
°C
App
Temp
°C
Dew
Point
Rel
Hum
%
Delta-T
°C
Wind Press
QNH
hPa
Press
MSL
hPa
Rain
since 9 am
mm
Dir
 
Spd
km/h
Gust
km/h
Spd
kts
Gust
kts
28/11:30pm 26.5 29.4 20.6 70 3.9 ENE 6 9 3 5 1011.1 1011.0 0.0
28/11:00pm 26.7 29.4 20.3 68 4.2 NE 6 7 3 4 1011.1 1011.0 0.0
28/10:30pm 27.3 29.5 20.4 66 4.5 ENE 9 13 5 7 1011.3 1011.2 0.0
28/10:00pm 27.7 29.5 20.3 64 4.9 NE 11 13 6 7 1011.2 1011.1 0.0
28/09:30pm 28.1 30.2 20.1 62 5.2 NE 9 15 5 8 1010.9 1010.8 0.0
28/09:00pm 28.8 30.5 19.4 56 6.1 NE 9 13 5 7 1010.7 1010.6 0.0
28/08:30pm 29.4 31.3 18.5 52 7.0 NE 6 9 3 5 1010.4 1010.3 0.0
28/08:00pm 30.4 31.0 17.8 46 8.0 ENE 11 17 6 9 1010.1 1010.0 0.0
28/07:30pm 31.1 31.0 15.9 40 9.5 ENE 11 17 6 9 1009.7 1009.6 0.0
28/07:00pm 32.1 31.0 14.3 34 10.9 ENE 13 24 7 13 1009.3 1009.2 0.0

Other Formats:

Comma delimited format used in spreadsheet applications
http://www.bom.gov.au/fwo/IDD60801/IDD60801.94106.axf

JavaScript Object Notation format (JSON) in row-major order
http://www.bom.gov.au/fwo/IDD60801/IDD60801.94106.json